This is the latest recevied weather packets stored in our database for station/object LRSV. If no packets are shown the sender has not sent any weather packets the latest 10 day(s).
| Time | Temp. | Humidity | Pressure | Rain* | Wind** | Luminosity | Snow |
|---|---|---|---|---|---|---|---|
| 1778251701 | 17.22° C | 83% | 1015 hPa | - | - | - | - |
| 1778250800 | 17.22° C | 83% | 1015 hPa | - | - | - | - |
| 1778249900 | 17.22° C | 83% | 1015 hPa | - | - | - | - |
| 1778249000 | 17.22° C | 83% | 1015 hPa | - | - | - | - |
| 1778248176 | 17.78° C | 83% | 1015 hPa | - | - | - | - |
| 1778247200 | 17.78° C | 83% | 1015 hPa | - | - | - | - |
| 1778246301 | 17.22° C | 88% | 1015 hPa | - | - | - | - |
| 1778245401 | 17.22° C | 88% | 1015 hPa | - | - | - | - |
| 1778244500 | 16.11° C | 94% | 1015 hPa | - | - | - | - |
| 1778243600 | 16.11° C | 94% | 1015 hPa | - | - | - | - |
| 1778242708 | 16.11° C | 94% | 1015 hPa | - | - | - | - |
| 1778241800 | 16.11° C | 94% | 1015 hPa | - | - | - | - |
| 1778240900 | 17.22° C | 88% | 1015 hPa | - | - | - | - |
| 1778240000 | 17.22° C | 88% | 1015 hPa | - | - | - | - |
| 1778239101 | 16.11° C | 100% | 1015 hPa | - | - | - | - |
| 1778238201 | 16.11° C | 100% | 1015 hPa | - | - | - | - |
| 1778236416 | 17.78° C | 78% | 1015 hPa | - | - | - | - |
| 1778235501 | 17.78° C | 78% | 1015 hPa | - | - | - | - |
| 1778234601 | 17.78° C | 78% | 1015 hPa | - | - | - | - |
| 1778233700 | 18.89° C | 78% | 1015 hPa | - | - | - | - |
| 1778232800 | 18.89° C | 78% | 1015 hPa | - | - | - | - |
| 1778231900 | 17.78° C | 83% | 1015 hPa | - | - | - | - |
| 1778231000 | 17.78° C | 83% | 1015 hPa | - | - | - | - |
| 1778230100 | 17.22° C | 88% | 1015 hPa | - | - | - | - |
| 1778229200 | 17.22° C | 88% | 1015 hPa | - | - | - | - |
* Rain since midnight (hover to see other rain measurements)
** Current wind speed in m/s (hover to see current wind gust speed)